createdAt,value
2019-01-30T00:00:45.528Z,100.00
2019-01-30T00:03:14.231Z,100.00
2019-01-30T00:05:42.948Z,100.00
2019-01-30T00:08:11.676Z,100.00
2019-01-30T00:10:40.312Z,100.00
2019-01-30T00:13:09.027Z,100.00
2019-01-30T00:15:37.777Z,100.00
2019-01-30T00:18:06.431Z,100.00
2019-01-30T00:20:35.142Z,100.00
2019-01-30T00:23:03.999Z,100.00
2019-01-30T00:25:32.707Z,100.00
2019-01-30T00:28:01.415Z,100.00
2019-01-30T00:30:30.197Z,100.00
2019-01-30T00:32:58.903Z,100.00
2019-01-30T00:35:27.819Z,100.00
2019-01-30T00:37:58.479Z,100.00
2019-01-30T00:40:27.047Z,100.00
2019-01-30T00:42:55.683Z,100.00
2019-01-30T00:45:24.695Z,100.00
2019-01-30T00:47:53.434Z,100.00
2019-01-30T00:50:24.322Z,100.00
2019-01-30T00:52:53.223Z,100.00
2019-01-30T00:55:22.359Z,100.00
2019-01-30T00:57:51.002Z,100.00
2019-01-30T01:00:24.871Z,100.00
2019-01-30T01:02:53.540Z,100.00
2019-01-30T01:05:22.539Z,100.00
2019-01-30T01:07:51.244Z,100.00
2019-01-30T01:10:21.410Z,100.00
2019-01-30T01:12:50.345Z,100.00
2019-01-30T01:15:19.268Z,100.00
2019-01-30T01:17:48.075Z,100.00
2019-01-30T01:20:24.146Z,100.00
2019-01-30T01:22:52.822Z,100.00
2019-01-30T01:25:21.562Z,100.00
2019-01-30T01:27:50.272Z,100.00
2019-01-30T01:30:25.548Z,100.00
2019-01-30T01:32:54.397Z,100.00
2019-01-30T01:35:23.241Z,100.00
2019-01-30T01:37:51.988Z,100.00
2019-01-30T01:40:20.685Z,100.00
2019-01-30T01:42:49.336Z,100.00
2019-01-30T01:45:23.824Z,100.00
2019-01-30T01:47:52.523Z,100.00
2019-01-30T01:50:22.492Z,100.00
2019-01-30T01:52:51.250Z,100.00
2019-01-30T01:55:20.168Z,100.00
2019-01-30T01:57:48.999Z,100.00
2019-01-30T02:00:22.375Z,100.00
2019-01-30T02:02:51.585Z,100.00
2019-01-30T02:05:22.017Z,100.00
2019-01-30T02:07:51.090Z,100.00
2019-01-30T02:10:22.318Z,100.00
2019-01-30T02:12:51.030Z,100.00
2019-01-30T02:15:21.622Z,100.00
2019-01-30T02:17:50.832Z,100.00
2019-01-30T02:20:21.867Z,100.00
2019-01-30T02:22:52.374Z,100.00
2019-01-30T02:25:21.049Z,100.00
2019-01-30T02:27:49.723Z,100.00
2019-01-30T02:30:20.743Z,100.00
2019-01-30T02:32:49.461Z,100.00
2019-01-30T02:35:18.115Z,100.00
2019-01-30T02:37:46.823Z,100.00
2019-01-30T02:40:17.994Z,100.00
2019-01-30T02:42:46.809Z,100.00
2019-01-30T02:45:20.791Z,100.00
2019-01-30T02:47:49.463Z,100.00
2019-01-30T02:50:19.669Z,100.00
2019-01-30T02:52:48.544Z,100.00
2019-01-30T02:55:19.087Z,100.00
2019-01-30T02:57:47.799Z,100.00
2019-01-30T03:00:21.885Z,100.00
2019-01-30T03:02:50.498Z,100.00
2019-01-30T03:05:19.410Z,100.00
2019-01-30T03:07:48.175Z,100.00
2019-01-30T03:10:18.790Z,100.00
2019-01-30T03:12:47.678Z,100.00
2019-01-30T03:15:26.538Z,100.00
2019-01-30T03:17:55.184Z,100.00
2019-01-30T03:20:28.694Z,100.00
2019-01-30T03:22:57.379Z,100.00
2019-01-30T03:25:26.687Z,100.00
2019-01-30T03:27:55.615Z,100.00
2019-01-30T03:30:26.996Z,100.00
2019-01-30T03:32:55.818Z,100.00
2019-01-30T03:35:24.909Z,100.00
2019-01-30T03:37:53.545Z,100.00
2019-01-30T03:40:23.368Z,100.00
2019-01-30T03:42:52.032Z,100.00
2019-01-30T03:45:22.639Z,100.00
2019-01-30T03:47:51.264Z,100.00
2019-01-30T03:50:20.317Z,100.00
2019-01-30T03:52:49.032Z,100.00
2019-01-30T03:55:19.364Z,100.00
2019-01-30T03:57:48.139Z,100.00
2019-01-30T04:00:21.651Z,100.00
2019-01-30T04:02:50.782Z,100.00
2019-01-30T04:05:19.685Z,100.00
2019-01-30T04:07:48.323Z,100.00
2019-01-30T04:10:24.627Z,100.00
2019-01-30T04:12:53.337Z,100.00
2019-01-30T04:15:22.318Z,100.00
2019-01-30T04:17:51.007Z,100.00
2019-01-30T04:20:22.949Z,100.00
2019-01-30T04:22:51.620Z,100.00
2019-01-30T04:25:20.359Z,100.00
2019-01-30T04:27:49.067Z,100.00
2019-01-30T04:30:20.368Z,100.00
2019-01-30T04:32:49.093Z,100.00
2019-01-30T04:35:17.791Z,100.00
2019-01-30T04:37:46.418Z,100.00
2019-01-30T04:40:17.337Z,100.00
2019-01-30T04:42:45.977Z,100.00
2019-01-30T04:45:17.420Z,100.00
2019-01-30T04:47:46.081Z,100.00
2019-01-30T04:50:14.817Z,100.00
2019-01-30T04:52:43.449Z,100.00
2019-01-30T04:55:12.578Z,100.00
2019-01-30T04:57:41.327Z,100.00
2019-01-30T05:00:12.942Z,100.00
2019-01-30T05:02:41.898Z,100.00
2019-01-30T05:05:11.951Z,100.00
2019-01-30T05:07:40.569Z,100.00
2019-01-30T05:10:11.614Z,100.00
2019-01-30T05:12:40.292Z,100.00
2019-01-30T05:15:20.251Z,100.00
2019-01-30T05:17:49.191Z,100.00
2019-01-30T05:20:39.040Z,100.00
2019-01-30T05:23:35.139Z,100.00
2019-01-30T05:26:03.883Z,100.00
2019-01-30T05:28:32.666Z,100.00
2019-01-30T05:31:01.365Z,100.00
2019-01-30T05:33:30.343Z,100.00
2019-01-30T05:35:59.072Z,100.00
2019-01-30T05:38:27.761Z,100.00
2019-01-30T05:40:56.483Z,100.00
2019-01-30T05:43:25.117Z,100.00
2019-01-30T05:45:53.740Z,100.00
2019-01-30T05:48:22.735Z,100.00
2019-01-30T05:50:51.393Z,100.00
2019-01-30T05:53:20.083Z,100.00
2019-01-30T05:55:48.801Z,100.00
2019-01-30T05:58:17.451Z,100.00
2019-01-30T06:00:46.170Z,100.00
2019-01-30T06:03:14.918Z,100.00
2019-01-30T06:05:43.555Z,100.00
2019-01-30T06:08:12.186Z,100.00
2019-01-30T06:10:40.869Z,100.00
2019-01-30T06:13:09.506Z,100.00
2019-01-30T06:15:38.152Z,100.00
2019-01-30T06:18:07.094Z,100.00
2019-01-30T06:20:35.719Z,100.00
2019-01-30T06:23:04.629Z,100.00
2019-01-30T06:25:33.551Z,100.00
2019-01-30T06:28:02.188Z,100.00
2019-01-30T06:30:30.827Z,100.00
2019-01-30T06:32:59.533Z,100.00
2019-01-30T06:35:28.241Z,100.00
2019-01-30T06:37:57.159Z,100.00
2019-01-30T06:40:28.338Z,100.00
2019-01-30T06:42:57.483Z,100.00
2019-01-30T06:45:26.849Z,100.00
2019-01-30T06:47:55.485Z,100.00
2019-01-30T06:50:24.215Z,100.00
2019-01-30T06:52:52.970Z,100.00
2019-01-30T06:55:21.713Z,100.00
2019-01-30T06:57:50.336Z,100.00
2019-01-30T07:00:21.265Z,100.00
2019-01-30T07:02:50.090Z,100.00
2019-01-30T07:05:18.922Z,100.00
2019-01-30T07:07:47.651Z,100.00
2019-01-30T07:10:19.223Z,100.00
2019-01-30T07:12:48.036Z,100.00
2019-01-30T07:15:16.871Z,100.00
2019-01-30T07:17:45.588Z,100.00
2019-01-30T07:20:16.191Z,100.00
2019-01-30T07:22:45.041Z,100.00
2019-01-30T07:25:19.185Z,100.00
2019-01-30T07:27:47.935Z,100.00
2019-01-30T07:30:19.467Z,100.00
2019-01-30T07:32:48.290Z,100.00
2019-01-30T07:35:17.044Z,100.00
2019-01-30T07:37:45.674Z,100.00
2019-01-30T07:40:16.179Z,100.00
2019-01-30T07:42:44.852Z,100.00
2019-01-30T07:45:19.218Z,100.00
2019-01-30T07:47:47.855Z,100.00
2019-01-30T07:50:16.769Z,100.00
2019-01-30T07:52:45.474Z,100.00
2019-01-30T07:55:17.671Z,100.00
2019-01-30T07:57:46.656Z,100.00
2019-01-30T08:00:23.609Z,100.00
2019-01-30T08:02:53.670Z,100.00
2019-01-30T08:05:22.975Z,97.22
2019-01-30T08:07:52.965Z,94.68
2019-01-30T08:10:21.841Z,96.12
2019-01-30T08:12:50.649Z,93.91
2019-01-30T08:15:21.727Z,93.19
2019-01-30T08:17:50.399Z,92.66
2019-01-30T08:20:20.433Z,91.18
2019-01-30T08:22:49.200Z,91.09
2019-01-30T08:25:19.968Z,89.76
2019-01-30T08:27:48.973Z,92.30
2019-01-30T08:30:28.957Z,91.46
2019-01-30T08:33:04.536Z,91.50
2019-01-30T08:35:30.594Z,90.87
2019-01-30T08:37:59.691Z,90.22
2019-01-30T08:40:28.517Z,88.88
2019-01-30T08:42:57.447Z,87.02
2019-01-30T08:45:30.312Z,89.09
2019-01-30T08:47:59.285Z,88.05
2019-01-30T08:50:28.080Z,90.36
2019-01-30T08:52:56.910Z,91.32
2019-01-30T08:55:25.964Z,92.10
2019-01-30T08:57:54.792Z,89.53
2019-01-30T09:00:26.351Z,90.97
2019-01-30T09:02:55.124Z,89.86
2019-01-30T09:05:23.761Z,88.23
2019-01-30T09:07:52.486Z,88.68
2019-01-30T09:10:23.845Z,87.54
2019-01-30T09:12:52.575Z,87.17
2019-01-30T09:15:22.981Z,87.47
2019-01-30T09:17:51.644Z,88.77
2019-01-30T09:20:21.968Z,88.12
2019-01-30T09:22:50.595Z,88.91
2019-01-30T09:25:27.444Z,86.98
2019-01-30T09:27:56.254Z,86.75
2019-01-30T09:30:30.003Z,85.14
2019-01-30T09:32:58.980Z,82.77
2019-01-30T09:35:27.703Z,82.76
2019-01-30T09:37:57.247Z,84.95
2019-01-30T09:40:26.207Z,84.06
2019-01-30T09:42:54.906Z,84.33
2019-01-30T09:45:24.530Z,84.38
2019-01-30T09:47:53.517Z,83.80
2019-01-30T09:50:26.270Z,84.55
2019-01-30T09:52:55.375Z,85.19
2019-01-30T09:55:24.330Z,86.26
2019-01-30T09:57:53.141Z,85.85
2019-01-30T10:00:27.736Z,87.57
2019-01-30T10:02:59.179Z,88.20
2019-01-30T10:05:28.002Z,88.68
2019-01-30T10:07:56.806Z,88.35
2019-01-30T10:10:28.047Z,87.90
2019-01-30T10:12:56.835Z,87.31
2019-01-30T10:15:30.932Z,89.02
2019-01-30T10:17:59.552Z,88.48
2019-01-30T10:20:29.871Z,87.81
2019-01-30T10:22:58.587Z,87.13
2019-01-30T10:25:27.546Z,87.26
2019-01-30T10:27:56.242Z,84.95
2019-01-30T10:30:36.284Z,85.57
2019-01-30T10:33:05.779Z,83.01
2019-01-30T10:35:35.972Z,81.84
2019-01-30T10:38:05.575Z,82.21
2019-01-30T10:40:34.239Z,80.34
2019-01-30T10:43:02.861Z,81.37
2019-01-30T10:45:31.415Z,81.14
2019-01-30T10:48:00.261Z,82.42
2019-01-30T10:50:32.838Z,82.83
2019-01-30T10:53:01.462Z,84.40
2019-01-30T10:55:35.004Z,81.58
2019-01-30T10:58:08.121Z,81.10
2019-01-30T11:00:45.134Z,81.67
2019-01-30T11:03:13.985Z,84.27
2019-01-30T11:05:44.347Z,83.58
2019-01-30T11:08:13.066Z,85.15
2019-01-30T11:10:41.969Z,84.98
2019-01-30T11:13:10.601Z,84.99
2019-01-30T11:15:39.247Z,86.83
2019-01-30T11:18:10.693Z,87.39
2019-01-30T11:20:39.424Z,86.85
2019-01-30T11:23:08.056Z,85.21
2019-01-30T11:25:42.684Z,85.97
2019-01-30T11:28:11.429Z,84.07
2019-01-30T11:30:40.155Z,85.41
2019-01-30T11:33:08.847Z,85.43
2019-01-30T11:35:37.390Z,84.78
2019-01-30T11:38:08.861Z,83.77
2019-01-30T11:40:38.157Z,81.84
2019-01-30T11:43:06.943Z,80.51
2019-01-30T11:45:43.100Z,80.89
2019-01-30T11:48:11.791Z,80.92
2019-01-30T11:50:40.992Z,81.31
2019-01-30T11:53:09.818Z,81.08
2019-01-30T11:55:39.016Z,82.45
2019-01-30T11:58:07.926Z,82.90
2019-01-30T12:00:48.141Z,82.64
2019-01-30T12:03:16.886Z,82.57
2019-01-30T12:05:45.710Z,83.33
2019-01-30T12:08:14.362Z,83.58
2019-01-30T12:10:42.980Z,81.51
2019-01-30T12:13:11.617Z,80.79
2019-01-30T12:15:40.165Z,80.70
2019-01-30T12:18:08.871Z,79.26
2019-01-30T12:20:37.501Z,78.22
2019-01-30T12:23:06.466Z,75.97
2019-01-30T12:25:35.143Z,75.44
2019-01-30T12:28:03.771Z,75.71
2019-01-30T12:30:32.739Z,76.79
2019-01-30T12:33:01.331Z,76.46
2019-01-30T12:35:29.939Z,77.19
2019-01-30T12:37:58.655Z,75.91
2019-01-30T12:40:27.447Z,75.79
2019-01-30T12:42:56.179Z,76.34
2019-01-30T12:45:30.704Z,76.78
2019-01-30T12:47:59.491Z,77.36
2019-01-30T12:50:28.427Z,76.80
2019-01-30T12:52:57.193Z,75.45
2019-01-30T12:55:25.814Z,76.40
2019-01-30T12:57:54.532Z,77.30
2019-01-30T13:00:26.024Z,77.20
2019-01-30T13:02:54.883Z,77.20
2019-01-30T13:05:25.897Z,77.84
2019-01-30T13:07:54.829Z,76.95
2019-01-30T13:10:23.565Z,77.34
2019-01-30T13:12:52.181Z,77.02
2019-01-30T13:15:23.676Z,77.64
2019-01-30T13:17:52.403Z,78.60
2019-01-30T13:20:22.830Z,78.68
2019-01-30T13:22:51.539Z,79.97
2019-01-30T13:25:22.566Z,79.05
2019-01-30T13:27:51.178Z,79.78
2019-01-30T13:30:22.811Z,80.04
2019-01-30T13:32:51.836Z,80.28
2019-01-30T13:35:20.549Z,80.81
2019-01-30T13:37:49.211Z,81.18
2019-01-30T13:40:20.523Z,81.67
2019-01-30T13:42:49.087Z,81.39
2019-01-30T13:45:18.020Z,82.09
2019-01-30T13:47:46.653Z,81.58
2019-01-30T13:50:20.992Z,81.44
2019-01-30T13:52:49.759Z,81.78
2019-01-30T13:55:18.325Z,80.64
2019-01-30T13:57:47.046Z,81.51
2019-01-30T14:00:27.922Z,82.22
2019-01-30T14:02:56.561Z,82.19
2019-01-30T14:05:25.005Z,82.92
2019-01-30T14:07:56.780Z,83.27
2019-01-30T14:10:27.129Z,83.71
2019-01-30T14:12:55.913Z,83.51
2019-01-30T14:15:27.097Z,83.31
2019-01-30T14:17:55.673Z,83.85
2019-01-30T14:20:25.804Z,84.62
2019-01-30T14:22:54.433Z,83.82
2019-01-30T14:25:23.072Z,84.54
2019-01-30T14:27:51.806Z,85.08
2019-01-30T14:30:29.267Z,84.95
2019-01-30T14:32:57.897Z,85.11
2019-01-30T14:35:27.762Z,85.82
2019-01-30T14:37:56.484Z,86.74
2019-01-30T14:40:25.203Z,87.53
2019-01-30T14:42:53.926Z,88.10
2019-01-30T14:45:22.597Z,88.64
2019-01-30T14:47:51.881Z,89.13
2019-01-30T14:50:22.482Z,89.87
2019-01-30T14:52:51.089Z,89.83
2019-01-30T14:55:19.815Z,91.16
2019-01-30T14:57:48.821Z,92.35
2019-01-30T15:00:23.095Z,94.57
2019-01-30T15:02:51.684Z,95.78
2019-01-30T15:05:22.675Z,95.92
2019-01-30T15:07:51.566Z,95.74
2019-01-30T15:10:22.495Z,95.90
2019-01-30T15:12:51.192Z,97.68
2019-01-30T15:15:25.308Z,98.46
2019-01-30T15:17:53.984Z,100.00
2019-01-30T15:20:24.989Z,100.00
2019-01-30T15:22:53.929Z,100.00
2019-01-30T15:25:24.568Z,100.00
2019-01-30T15:27:53.238Z,100.00
2019-01-30T15:30:36.626Z,100.00
2019-01-30T15:33:06.151Z,100.00
2019-01-30T15:35:34.763Z,100.00
2019-01-30T15:38:05.397Z,100.00
2019-01-30T15:40:34.249Z,100.00
2019-01-30T15:43:02.985Z,100.00
2019-01-30T15:45:31.606Z,100.00
2019-01-30T15:48:00.520Z,100.00
2019-01-30T15:50:37.888Z,100.00
2019-01-30T15:53:09.157Z,100.00
2019-01-30T15:55:37.787Z,100.00
2019-01-30T15:58:09.026Z,100.00
2019-01-30T16:00:43.524Z,100.00
2019-01-30T16:03:12.204Z,100.00
2019-01-30T16:05:45.042Z,100.00
2019-01-30T16:08:11.524Z,100.00
2019-01-30T16:10:40.171Z,100.00
2019-01-30T16:13:08.855Z,100.00
2019-01-30T16:15:40.416Z,100.00
2019-01-30T16:18:09.096Z,100.00
2019-01-30T16:20:37.713Z,100.00
2019-01-30T16:23:06.901Z,100.00
2019-01-30T16:25:35.447Z,100.00
2019-01-30T16:28:04.679Z,100.00
2019-01-30T16:30:33.280Z,100.00
2019-01-30T16:33:01.911Z,100.00
2019-01-30T16:35:32.153Z,100.00
2019-01-30T16:38:01.240Z,100.00
2019-01-30T16:40:29.969Z,100.00
2019-01-30T16:42:58.707Z,100.00
2019-01-30T16:45:32.837Z,100.00
2019-01-30T16:48:01.422Z,100.00
2019-01-30T16:50:30.037Z,100.00
2019-01-30T16:52:58.702Z,100.00
2019-01-30T16:55:27.338Z,100.00
2019-01-30T16:57:57.277Z,100.00
2019-01-30T17:00:33.744Z,100.00
2019-01-30T17:03:04.266Z,100.00
2019-01-30T17:05:33.406Z,100.00
2019-01-30T17:08:02.086Z,100.00
2019-01-30T17:10:30.784Z,100.00
2019-01-30T17:12:59.417Z,100.00
2019-01-30T17:15:30.879Z,100.00
2019-01-30T17:17:59.443Z,100.00
2019-01-30T17:20:30.287Z,100.00
2019-01-30T17:22:59.194Z,100.00
2019-01-30T17:25:27.813Z,100.00
2019-01-30T17:27:56.482Z,100.00
2019-01-30T17:30:39.833Z,100.00
2019-01-30T17:33:08.879Z,100.00
2019-01-30T17:35:38.165Z,100.00
2019-01-30T17:38:07.136Z,100.00
2019-01-30T17:40:35.771Z,100.00
2019-01-30T17:43:04.501Z,100.00
2019-01-30T17:45:33.270Z,100.00
2019-01-30T17:48:02.290Z,100.00
2019-01-30T17:50:31.135Z,100.00
2019-01-30T17:53:00.047Z,100.00
2019-01-30T17:55:28.854Z,100.00
2019-01-30T17:57:57.432Z,100.00
2019-01-30T18:00:30.681Z,100.00
2019-01-30T18:02:59.317Z,100.00
2019-01-30T18:05:27.996Z,100.00
2019-01-30T18:07:56.675Z,100.00
2019-01-30T18:10:25.401Z,100.00
2019-01-30T18:12:54.120Z,100.00
2019-01-30T18:15:23.287Z,100.00
2019-01-30T18:17:54.274Z,100.00
2019-01-30T18:20:23.054Z,100.00
2019-01-30T18:22:51.824Z,100.00
2019-01-30T18:25:21.414Z,100.00
2019-01-30T18:27:50.130Z,100.00
2019-01-30T18:30:23.952Z,100.00
2019-01-30T18:32:52.682Z,100.00
2019-01-30T18:35:21.361Z,100.00
2019-01-30T18:37:50.023Z,100.00
2019-01-30T18:40:27.548Z,100.00
2019-01-30T18:42:56.252Z,100.00
2019-01-30T18:45:26.494Z,100.00
2019-01-30T18:47:55.996Z,100.00
2019-01-30T18:50:29.295Z,100.00
2019-01-30T18:52:58.132Z,100.00
2019-01-30T18:55:26.763Z,100.00
2019-01-30T18:57:55.984Z,100.00
2019-01-30T19:00:29.831Z,100.00
2019-01-30T19:03:00.258Z,100.00
2019-01-30T19:05:30.432Z,100.00
2019-01-30T19:07:59.121Z,100.00
2019-01-30T19:10:27.751Z,100.00
2019-01-30T19:12:56.439Z,100.00
2019-01-30T19:15:27.593Z,100.00
2019-01-30T19:17:56.310Z,100.00
2019-01-30T19:20:27.484Z,100.00
2019-01-30T19:22:56.103Z,100.00
2019-01-30T19:25:24.743Z,100.00
2019-01-30T19:27:56.013Z,100.00
2019-01-30T19:30:28.714Z,100.00
2019-01-30T19:32:57.416Z,100.00
2019-01-30T19:35:26.146Z,100.00
2019-01-30T19:37:54.964Z,100.00
2019-01-30T19:40:26.631Z,100.00
2019-01-30T19:42:55.447Z,100.00
2019-01-30T19:45:28.030Z,100.00
2019-01-30T19:47:56.650Z,100.00
2019-01-30T19:50:27.829Z,100.00
2019-01-30T19:52:56.648Z,100.00
2019-01-30T19:55:25.465Z,100.00
2019-01-30T19:57:55.188Z,100.00
2019-01-30T20:00:29.530Z,100.00
2019-01-30T20:02:58.424Z,100.00
2019-01-30T20:05:27.177Z,100.00
2019-01-30T20:07:55.878Z,100.00
2019-01-30T20:10:30.112Z,100.00
2019-01-30T20:12:58.785Z,100.00
2019-01-30T20:15:27.712Z,100.00
2019-01-30T20:17:56.421Z,100.00
2019-01-30T20:20:25.302Z,100.00
2019-01-30T20:22:53.944Z,100.00
2019-01-30T20:25:25.449Z,100.00
2019-01-30T20:27:54.181Z,100.00
2019-01-30T20:30:24.230Z,100.00
2019-01-30T20:32:53.247Z,100.00
2019-01-30T20:35:22.367Z,100.00
2019-01-30T20:37:50.995Z,100.00
2019-01-30T20:40:24.794Z,100.00
2019-01-30T20:42:53.563Z,100.00
2019-01-30T20:45:33.032Z,100.00
2019-01-30T20:47:52.713Z,100.00
2019-01-30T20:50:26.703Z,100.00
2019-01-30T20:52:55.740Z,100.00
2019-01-30T20:55:24.443Z,100.00
2019-01-30T20:57:53.109Z,100.00
2019-01-30T21:00:30.059Z,100.00
2019-01-30T21:02:58.788Z,100.00
2019-01-30T21:05:27.484Z,100.00
2019-01-30T21:07:56.101Z,100.00
2019-01-30T21:10:33.465Z,100.00
2019-01-30T21:13:08.323Z,100.00
2019-01-30T21:15:37.022Z,100.00
2019-01-30T21:18:06.685Z,100.00
2019-01-30T21:20:35.265Z,100.00
2019-01-30T21:23:05.491Z,100.00
2019-01-30T21:25:34.219Z,100.00
2019-01-30T21:28:02.856Z,100.00
2019-01-30T21:30:33.982Z,100.00
2019-01-30T21:33:02.893Z,100.00
2019-01-30T21:35:32.061Z,100.00
2019-01-30T21:38:00.720Z,100.00
2019-01-30T21:40:29.559Z,100.00
2019-01-30T21:42:58.187Z,100.00
2019-01-30T21:45:29.563Z,100.00
2019-01-30T21:47:58.274Z,100.00
2019-01-30T21:50:26.968Z,100.00
2019-01-30T21:52:55.595Z,100.00
2019-01-30T21:55:25.802Z,100.00
2019-01-30T21:57:54.504Z,100.00
2019-01-30T22:00:27.747Z,100.00
2019-01-30T22:02:56.610Z,100.00
2019-01-30T22:05:25.699Z,100.00
2019-01-30T22:08:01.048Z,100.00
2019-01-30T22:10:29.408Z,100.00
2019-01-30T22:12:58.185Z,100.00
2019-01-30T22:15:26.830Z,100.00
2019-01-30T22:17:55.479Z,100.00
2019-01-30T22:20:25.619Z,100.00
2019-01-30T22:22:54.646Z,100.00
2019-01-30T22:25:25.101Z,100.00
2019-01-30T22:27:53.709Z,100.00
2019-01-30T22:30:24.400Z,100.00
2019-01-30T22:32:53.148Z,100.00
2019-01-30T22:35:21.961Z,100.00
2019-01-30T22:37:50.639Z,100.00
2019-01-30T22:40:19.319Z,100.00
2019-01-30T22:42:48.036Z,100.00
2019-01-30T22:45:21.955Z,100.00
2019-01-30T22:47:50.619Z,100.00
2019-01-30T22:50:20.550Z,100.00
2019-01-30T22:52:49.383Z,100.00
2019-01-30T22:55:19.891Z,100.00
2019-01-30T22:57:50.708Z,100.00
2019-01-30T23:00:29.370Z,100.00
2019-01-30T23:02:58.143Z,100.00
2019-01-30T23:05:46.313Z,100.00
2019-01-30T23:08:22.934Z,100.00
2019-01-30T23:11:10.671Z,100.00
2019-01-30T23:13:42.214Z,100.00
2019-01-30T23:16:16.296Z,100.00
2019-01-30T23:18:50.916Z,100.00
2019-01-30T23:21:22.496Z,100.00
2019-01-30T23:23:56.814Z,100.00
2019-01-30T23:26:34.261Z,100.00
2019-01-30T23:29:23.944Z,100.00
2019-01-30T23:31:58.288Z,100.00
2019-01-30T23:34:38.471Z,100.00
2019-01-30T23:37:19.382Z,100.00
2019-01-30T23:40:06.346Z,100.00
2019-01-30T23:43:06.513Z,100.00
2019-01-30T23:45:59.266Z,100.00
2019-01-30T23:48:46.090Z,100.00
2019-01-30T23:51:40.257Z,100.00
2019-01-30T23:54:32.953Z,100.00
2019-01-30T23:57:12.984Z,100.00
2019-01-30T23:59:59.895Z,100.00
